sensor_id;sensor_type;location;lat;lon;timestamp;pressure;altitude;pressure_sealevel;temperature;humidity
18985;BME280;9626;52.552;13.436;2023-08-06T00:00:21;100237.03;;;17.49;100.00
18985;BME280;9626;52.552;13.436;2023-08-06T00:02:48;100248.59;;;17.50;100.00
18985;BME280;9626;52.552;13.436;2023-08-06T00:05:14;100244.28;;;17.47;100.00
18985;BME280;9626;52.552;13.436;2023-08-06T00:07:48;100249.63;;;17.47;100.00
18985;BME280;9626;52.552;13.436;2023-08-06T00:10:14;100248.50;;;17.51;100.00
18985;BME280;9626;52.552;13.436;2023-08-06T00:12:41;100249.44;;;17.50;100.00
18985;BME280;9626;52.552;13.436;2023-08-06T00:15:08;100245.06;;;17.49;100.00
18985;BME280;9626;52.552;13.436;2023-08-06T00:17:34;100242.53;;;17.46;100.00
18985;BME280;9626;52.552;13.436;2023-08-06T00:20:01;100234.69;;;17.43;100.00
18985;BME280;9626;52.552;13.436;2023-08-06T00:22:36;100224.91;;;17.42;100.00
18985;BME280;9626;52.552;13.436;2023-08-06T00:25:04;100226.22;;;17.35;100.00
18985;BME280;9626;52.552;13.436;2023-08-06T00:27:30;100223.28;;;17.39;100.00
18985;BME280;9626;52.552;13.436;2023-08-06T00:29:56;100221.66;;;17.37;100.00
18985;BME280;9626;52.552;13.436;2023-08-06T00:32:22;100220.03;;;17.34;100.00
18985;BME280;9626;52.552;13.436;2023-08-06T00:34:48;100218.38;;;17.32;100.00
18985;BME280;9626;52.552;13.436;2023-08-06T00:37:17;100211.28;;;17.31;100.00
18985;BME280;9626;52.552;13.436;2023-08-06T00:39:44;100219.03;;;17.35;100.00
18985;BME280;9626;52.552;13.436;2023-08-06T00:42:13;100215.53;;;17.35;100.00
18985;BME280;9626;52.552;13.436;2023-08-06T00:44:39;100208.34;;;17.35;100.00
18985;BME280;9626;52.552;13.436;2023-08-06T00:47:07;100220.88;;;17.35;100.00
18985;BME280;9626;52.552;13.436;2023-08-06T00:49:35;100212.75;;;17.36;100.00
18985;BME280;9626;52.552;13.436;2023-08-06T00:52:03;100206.47;;;17.37;100.00
18985;BME280;9626;52.552;13.436;2023-08-06T00:54:30;100211.09;;;17.34;100.00
18985;BME280;9626;52.552;13.436;2023-08-06T00:56:57;100208.28;;;17.37;100.00
18985;BME280;9626;52.552;13.436;2023-08-06T00:59:25;100205.75;;;17.34;100.00
18985;BME280;9626;52.552;13.436;2023-08-06T01:01:51;100205.94;;;17.31;100.00
18985;BME280;9626;52.552;13.436;2023-08-06T01:04:17;100207.81;;;17.29;100.00
18985;BME280;9626;52.552;13.436;2023-08-06T01:07:03;100206.03;;;17.29;100.00
18985;BME280;9626;52.552;13.436;2023-08-06T01:12:28;100199.97;;;17.26;100.00
18985;BME280;9626;52.552;13.436;2023-08-06T01:15:15;100201.78;;;17.25;100.00
18985;BME280;9626;52.552;13.436;2023-08-06T01:17:45;100195.75;;;17.21;100.00
18985;BME280;9626;52.552;13.436;2023-08-06T01:20:11;100201.09;;;17.21;100.00
18985;BME280;9626;52.552;13.436;2023-08-06T01:22:37;100198.31;;;17.23;100.00
18985;BME280;9626;52.552;13.436;2023-08-06T01:25:03;100195.56;;;17.24;100.00
18985;BME280;9626;52.552;13.436;2023-08-06T01:27:47;100193.78;;;17.25;100.00
18985;BME280;9626;52.552;13.436;2023-08-06T01:30:26;100187.03;;;17.18;100.00
18985;BME280;9626;52.552;13.436;2023-08-06T01:33:00;100184.50;;;17.15;100.00
18985;BME280;9626;52.552;13.436;2023-08-06T01:35:29;100175.00;;;17.09;100.00
18985;BME280;9626;52.552;13.436;2023-08-06T01:37:56;100178.72;;;17.06;100.00
18985;BME280;9626;52.552;13.436;2023-08-06T01:40:22;100169.06;;;17.04;100.00
18985;BME280;9626;52.552;13.436;2023-08-06T01:42:48;100171.72;;;17.04;100.00
18985;BME280;9626;52.552;13.436;2023-08-06T01:45:14;100161.03;;;17.04;100.00
18985;BME280;9626;52.552;13.436;2023-08-06T01:47:40;100167.94;;;17.08;100.00
18985;BME280;9626;52.552;13.436;2023-08-06T01:50:06;100160.19;;;17.03;100.00
18985;BME280;9626;52.552;13.436;2023-08-06T01:52:32;100158.63;;;16.99;100.00
18985;BME280;9626;52.552;13.436;2023-08-06T01:54:58;100159.81;;;16.94;100.00
18985;BME280;9626;52.552;13.436;2023-08-06T01:57:24;100162.50;;;16.94;100.00
18985;BME280;9626;52.552;13.436;2023-08-06T01:59:50;100159.97;;;16.90;100.00
18985;BME280;9626;52.552;13.436;2023-08-06T02:02:16;100148.47;;;16.88;100.00
18985;BME280;9626;52.552;13.436;2023-08-06T02:04:42;100149.75;;;16.81;100.00
18985;BME280;9626;52.552;13.436;2023-08-06T02:07:08;100149.69;;;16.83;100.00
18985;BME280;9626;52.552;13.436;2023-08-06T02:09:34;100146.13;;;16.82;100.00
18985;BME280;9626;52.552;13.436;2023-08-06T02:12:01;100147.22;;;16.78;100.00
18985;BME280;9626;52.552;13.436;2023-08-06T02:14:28;100145.53;;;16.77;100.00
18985;BME280;9626;52.552;13.436;2023-08-06T02:16:54;100136.50;;;16.80;100.00
18985;BME280;9626;52.552;13.436;2023-08-06T02:19:20;100144.50;;;16.80;100.00
18985;BME280;9626;52.552;13.436;2023-08-06T02:21:46;100143.63;;;16.79;100.00
18985;BME280;9626;52.552;13.436;2023-08-06T02:24:12;100137.59;;;16.76;100.00
18985;BME280;9626;52.552;13.436;2023-08-06T02:26:38;100140.50;;;16.71;100.00
18985;BME280;9626;52.552;13.436;2023-08-06T02:29:04;100132.47;;;16.71;100.00
18985;BME280;9626;52.552;13.436;2023-08-06T02:31:30;100134.22;;;16.72;100.00
18985;BME280;9626;52.552;13.436;2023-08-06T02:33:56;100129.72;;;16.72;100.00
18985;BME280;9626;52.552;13.436;2023-08-06T02:36:22;100123.25;;;16.77;100.00
18985;BME280;9626;52.552;13.436;2023-08-06T02:38:49;100121.09;;;16.67;100.00
18985;BME280;9626;52.552;13.436;2023-08-06T02:41:15;100131.09;;;16.64;100.00
18985;BME280;9626;52.552;13.436;2023-08-06T02:43:41;100124.94;;;16.62;100.00
18985;BME280;9626;52.552;13.436;2023-08-06T02:46:07;100120.03;;;16.54;100.00
18985;BME280;9626;52.552;13.436;2023-08-06T02:48:33;100117.97;;;16.59;100.00
18985;BME280;9626;52.552;13.436;2023-08-06T02:50:59;100116.25;;;16.58;100.00
18985;BME280;9626;52.552;13.436;2023-08-06T02:53:26;100110.22;;;16.54;100.00
18985;BME280;9626;52.552;13.436;2023-08-06T02:55:52;100102.34;;;16.51;100.00
18985;BME280;9626;52.552;13.436;2023-08-06T02:58:18;100100.44;;;16.53;100.00
18985;BME280;9626;52.552;13.436;2023-08-06T03:01:01;100109.59;;;16.49;100.00
18985;BME280;9626;52.552;13.436;2023-08-06T03:03:30;100112.03;;;16.54;100.00
18985;BME280;9626;52.552;13.436;2023-08-06T03:05:56;100109.34;;;16.54;100.00
18985;BME280;9626;52.552;13.436;2023-08-06T03:08:22;100116.25;;;16.58;100.00
18985;BME280;9626;52.552;13.436;2023-08-06T03:10:49;100111.94;;;16.55;100.00
18985;BME280;9626;52.552;13.436;2023-08-06T03:13:19;100110.22;;;16.54;100.00
18985;BME280;9626;52.552;13.436;2023-08-06T03:15:52;100111.41;;;16.49;100.00
18985;BME280;9626;52.552;13.436;2023-08-06T03:18:20;100106.16;;;16.47;100.00
18985;BME280;9626;52.552;13.436;2023-08-06T03:20:46;100105.34;;;16.45;100.00
18985;BME280;9626;52.552;13.436;2023-08-06T03:23:12;100099.56;;;16.37;100.00
18985;BME280;9626;52.552;13.436;2023-08-06T03:25:38;100091.53;;;16.37;100.00
18985;BME280;9626;52.552;13.436;2023-08-06T03:28:07;100097.69;;;16.39;100.00
18985;BME280;9626;52.552;13.436;2023-08-06T03:30:33;100096.19;;;16.33;100.00
18985;BME280;9626;52.552;13.436;2023-08-06T03:32:59;100086.38;;;16.34;100.00
18985;BME280;9626;52.552;13.436;2023-08-06T03:35:25;100080.09;;;16.35;100.00
18985;BME280;9626;52.552;13.436;2023-08-06T03:37:51;100078.53;;;16.31;100.00
18985;BME280;9626;52.552;13.436;2023-08-06T03:40:17;100068.16;;;16.25;100.00
18985;BME280;9626;52.552;13.436;2023-08-06T03:42:43;100067.28;;;16.24;100.00
18985;BME280;9626;52.552;13.436;2023-08-06T03:45:09;100056.69;;;16.22;100.00
18985;BME280;9626;52.552;13.436;2023-08-06T03:47:35;100065.66;;;16.21;100.00
18985;BME280;9626;52.552;13.436;2023-08-06T03:50:01;100073.50;;;16.25;100.00
18985;BME280;9626;52.552;13.436;2023-08-06T03:52:27;100065.66;;;16.21;100.00
18985;BME280;9626;52.552;13.436;2023-08-06T03:54:53;100060.31;;;16.21;100.00
18985;BME280;9626;52.552;13.436;2023-08-06T03:57:19;100055.91;;;16.20;100.00
18985;BME280;9626;52.552;13.436;2023-08-06T03:59:45;100056.69;;;16.22;100.00
18985;BME280;9626;52.552;13.436;2023-08-06T04:02:11;100047.25;;;16.15;100.00
18985;BME280;9626;52.552;13.436;2023-08-06T04:04:37;100050.72;;;16.17;100.00
18985;BME280;9626;52.552;13.436;2023-08-06T04:07:03;100049.44;;;16.25;100.00
18985;BME280;9626;52.552;13.436;2023-08-06T04:09:29;100045.13;;;16.22;100.00
18985;BME280;9626;52.552;13.436;2023-08-06T04:11:56;100038.75;;;16.25;100.00
18985;BME280;9626;52.552;13.436;2023-08-06T04:14:26;100039.63;;;16.25;100.00
18985;BME280;9626;52.552;13.436;2023-08-06T04:16:52;100033.44;;;16.25;100.00
18985;BME280;9626;52.552;13.436;2023-08-06T04:19:18;100033.25;;;16.28;100.00
18985;BME280;9626;52.552;13.436;2023-08-06T04:21:44;100040.16;;;16.32;100.00
18985;BME280;9626;52.552;13.436;2023-08-06T04:24:10;100034.81;;;16.32;100.00
18985;BME280;9626;52.552;13.436;2023-08-06T04:26:36;100031.28;;;16.31;100.00
18985;BME280;9626;52.552;13.436;2023-08-06T04:29:02;100026.78;;;16.32;100.00
18985;BME280;9626;52.552;13.436;2023-08-06T04:31:28;100031.19;;;16.33;100.00
18985;BME280;9626;52.552;13.436;2023-08-06T04:33:54;100021.53;;;16.30;100.00
18985;BME280;9626;52.552;13.436;2023-08-06T04:36:20;100019.22;;;16.40;100.00
18985;BME280;9626;52.552;13.436;2023-08-06T04:38:46;100010.53;;;16.36;100.00
18985;BME280;9626;52.552;13.436;2023-08-06T04:41:13;100009.50;;;16.39;100.00
18985;BME280;9626;52.552;13.436;2023-08-06T04:43:39;100002.34;;;16.39;100.00
18985;BME280;9626;52.552;13.436;2023-08-06T04:46:05;100000.53;;;16.40;100.00
18985;BME280;9626;52.552;13.436;2023-08-06T04:48:31;99998.03;;;16.37;100.00
18985;BME280;9626;52.552;13.436;2023-08-06T04:50:57;99988.63;;;16.30;100.00
18985;BME280;9626;52.552;13.436;2023-08-06T04:53:23;99988.63;;;16.30;100.00
18985;BME280;9626;52.552;13.436;2023-08-06T04:55:49;99986.69;;;16.33;100.00
18985;BME280;9626;52.552;13.436;2023-08-06T04:58:16;99992.06;;;16.32;100.00
18985;BME280;9626;52.552;13.436;2023-08-06T05:00:42;99985.13;;;16.29;100.00
18985;BME280;9626;52.552;13.436;2023-08-06T05:03:08;99980.81;;;16.27;100.00
18985;BME280;9626;52.552;13.436;2023-08-06T05:05:34;99982.50;;;16.28;100.00
18985;BME280;9626;52.552;13.436;2023-08-06T05:08:00;99987.09;;;16.26;100.00
18985;BME280;9626;52.552;13.436;2023-08-06T05:10:27;99989.56;;;16.29;100.00
18985;BME280;9626;52.552;13.436;2023-08-06T05:12:53;99990.50;;;16.28;100.00
18985;BME280;9626;52.552;13.436;2023-08-06T05:15:19;99983.28;;;16.30;100.00
18985;BME280;9626;52.552;13.436;2023-08-06T05:17:45;99978.81;;;16.30;100.00
18985;BME280;9626;52.552;13.436;2023-08-06T05:20:11;99975.28;;;16.30;100.00
18985;BME280;9626;52.552;13.436;2023-08-06T05:22:41;99971.66;;;16.31;100.00
18985;BME280;9626;52.552;13.436;2023-08-06T05:25:07;99964.50;;;16.31;100.00
18985;BME280;9626;52.552;13.436;2023-08-06T05:27:33;99965.13;;;16.36;100.00
18985;BME280;9626;52.552;13.436;2023-08-06T05:29:59;99965.78;;;16.40;100.00
18985;BME280;9626;52.552;13.436;2023-08-06T05:32:25;99950.75;;;16.39;100.00
18985;BME280;9626;52.552;13.436;2023-08-06T05:34:51;99960.31;;;16.43;100.00
18985;BME280;9626;52.552;13.436;2023-08-06T05:37:17;99952.03;;;16.48;100.00
18985;BME280;9626;52.552;13.436;2023-08-06T05:39:43;99944.25;;;16.59;100.00
18985;BME280;9626;52.552;13.436;2023-08-06T05:42:09;99943.69;;;16.54;100.00
18985;BME280;9626;52.552;13.436;2023-08-06T05:44:35;99953.06;;;16.61;100.00
18985;BME280;9626;52.552;13.436;2023-08-06T05:47:01;99946.94;;;16.59;100.00
18985;BME280;9626;52.552;13.436;2023-08-06T05:49:27;99950.72;;;16.55;100.00
18985;BME280;9626;52.552;13.436;2023-08-06T05:51:53;99968.31;;;16.59;100.00
18985;BME280;9626;52.552;13.436;2023-08-06T05:54:19;99954.00;;;16.60;100.00
18985;BME280;9626;52.552;13.436;2023-08-06T05:56:45;99960.06;;;16.64;100.00
18985;BME280;9626;52.552;13.436;2023-08-06T05:59:11;99961.00;;;16.63;100.00
18985;BME280;9626;52.552;13.436;2023-08-06T06:01:37;99954.88;;;16.61;100.00
18985;BME280;9626;52.552;13.436;2023-08-06T06:04:03;99952.03;;;16.64;100.00
18985;BME280;9626;52.552;13.436;2023-08-06T06:06:30;99951.25;;;16.62;100.00
18985;BME280;9626;52.552;13.436;2023-08-06T06:08:55;99947.72;;;16.61;100.00
18985;BME280;9626;52.552;13.436;2023-08-06T06:11:21;99945.13;;;16.60;100.00
18985;BME280;9626;52.552;13.436;2023-08-06T06:13:50;99946.06;;;16.59;100.00
18985;BME280;9626;52.552;13.436;2023-08-06T06:16:16;99942.47;;;16.60;100.00
18985;BME280;9626;52.552;13.436;2023-08-06T06:18:42;99946.94;;;16.59;100.00
18985;BME280;9626;52.552;13.436;2023-08-06T06:21:09;99936.94;;;16.63;100.00
18985;BME280;9626;52.552;13.436;2023-08-06T06:23:35;99934.50;;;16.74;100.00
18985;BME280;9626;52.552;13.436;2023-08-06T06:26:01;99933.03;;;16.84;100.00
18985;BME280;9626;52.552;13.436;2023-08-06T06:28:27;99923.09;;;16.86;100.00
18985;BME280;9626;52.552;13.436;2023-08-06T06:30:53;99926.41;;;16.92;100.00
18985;BME280;9626;52.552;13.436;2023-08-06T06:33:25;99918.91;;;16.98;100.00
18985;BME280;9626;52.552;13.436;2023-08-06T06:35:51;99922.34;;;17.00;100.00
18985;BME280;9626;52.552;13.436;2023-08-06T06:38:17;99919.09;;;16.95;100.00
18985;BME280;9626;52.552;13.436;2023-08-06T06:40:43;99914.59;;;16.96;100.00
18985;BME280;9626;52.552;13.436;2023-08-06T06:43:09;99910.53;;;16.88;100.00
18985;BME280;9626;52.552;13.436;2023-08-06T06:45:35;99923.09;;;16.86;100.00
18985;BME280;9626;52.552;13.436;2023-08-06T06:48:01;99922.78;;;16.93;100.00
18985;BME280;9626;52.552;13.436;2023-08-06T06:50:27;99916.66;;;16.90;100.00
18985;BME280;9626;52.552;13.436;2023-08-06T06:52:53;99911.31;;;16.90;100.00
18985;BME280;9626;52.552;13.436;2023-08-06T06:55:19;99914.34;;;17.00;100.00
18985;BME280;9626;52.552;13.436;2023-08-06T06:57:46;99913.94;;;17.06;100.00
18985;BME280;9626;52.552;13.436;2023-08-06T07:00:12;99915.69;;;17.08;100.00
18985;BME280;9626;52.552;13.436;2023-08-06T07:02:38;99914.75;;;17.09;100.00
18985;BME280;9626;52.552;13.436;2023-08-06T07:05:05;99918.06;;;17.12;100.00
18985;BME280;9626;52.552;13.436;2023-08-06T07:07:32;99918.06;;;17.12;100.00
18985;BME280;9626;52.552;13.436;2023-08-06T07:09:58;99923.06;;;17.18;100.00
18985;BME280;9626;52.552;13.436;2023-08-06T07:12:24;99919.25;;;17.22;100.00
18985;BME280;9626;52.552;13.436;2023-08-06T07:14:50;99921.53;;;17.14;100.00
18985;BME280;9626;52.552;13.436;2023-08-06T07:17:16;99917.13;;;17.13;100.00
18985;BME280;9626;52.552;13.436;2023-08-06T07:19:42;99926.69;;;17.17;100.00
18985;BME280;9626;52.552;13.436;2023-08-06T07:22:08;99924.81;;;17.19;100.00
18985;BME280;9626;52.552;13.436;2023-08-06T07:24:34;99919.63;;;17.16;100.00
18985;BME280;9626;52.552;13.436;2023-08-06T07:27:00;99925.66;;;17.20;100.00
18985;BME280;9626;52.552;13.436;2023-08-06T07:29:26;99918.31;;;17.23;100.00
18985;BME280;9626;52.552;13.436;2023-08-06T07:31:52;99923.56;;;17.25;100.00
18985;BME280;9626;52.552;13.436;2023-08-06T07:34:18;99926.91;;;17.29;100.00
18985;BME280;9626;52.552;13.436;2023-08-06T07:36:45;99917.94;;;17.30;100.00
18985;BME280;9626;52.552;13.436;2023-08-06T07:39:11;99921.56;;;17.29;100.00
18985;BME280;9626;52.552;13.436;2023-08-06T07:41:38;99916.19;;;17.29;100.00
18985;BME280;9626;52.552;13.436;2023-08-06T07:44:04;99922.53;;;17.28;100.00
18985;BME280;9626;52.552;13.436;2023-08-06T07:46:30;99920.81;;;17.27;100.00
18985;BME280;9626;52.552;13.436;2023-08-06T07:48:56;99921.84;;;17.24;100.00
18985;BME280;9626;52.552;13.436;2023-08-06T07:51:22;99915.16;;;17.17;100.00
18985;BME280;9626;52.552;13.436;2023-08-06T07:53:48;99920.50;;;17.17;100.00
18985;BME280;9626;52.552;13.436;2023-08-06T07:56:14;99915.41;;;17.12;100.00
18985;BME280;9626;52.552;13.436;2023-08-06T07:58:40;99925.94;;;17.15;100.00
18985;BME280;9626;52.552;13.436;2023-08-06T08:01:06;99919.47;;;17.19;100.00
18985;BME280;9626;52.552;13.436;2023-08-06T08:03:33;99919.63;;;17.16;100.00
18985;BME280;9626;52.552;13.436;2023-08-06T08:05:59;99922.13;;;17.19;100.00
18985;BME280;9626;52.552;13.436;2023-08-06T08:08:25;99919.06;;;17.26;100.00
18985;BME280;9626;52.552;13.436;2023-08-06T08:10:51;99916.38;;;17.11;100.00
18985;BME280;9626;52.552;13.436;2023-08-06T08:13:17;99918.66;;;17.03;100.00
18985;BME280;9626;52.552;13.436;2023-08-06T08:15:44;99917.56;;;17.05;100.00
18985;BME280;9626;52.552;13.436;2023-08-06T08:18:10;99913.19;;;17.04;100.00
18985;BME280;9626;52.552;13.436;2023-08-06T08:20:36;99908.88;;;17.02;100.00
18985;BME280;9626;52.552;13.436;2023-08-06T08:23:02;99906.22;;;17.02;100.00
18985;BME280;9626;52.552;13.436;2023-08-06T08:25:28;99905.84;;;17.08;100.00
18985;BME280;9626;52.552;13.436;2023-08-06T08:27:55;99902.03;;;17.12;100.00
18985;BME280;9626;52.552;13.436;2023-08-06T08:30:21;99899.59;;;17.23;100.00
18985;BME280;9626;52.552;13.436;2023-08-06T08:32:48;99902.06;;;17.27;100.00
18985;BME280;9626;52.552;13.436;2023-08-06T08:35:14;99890.78;;;17.21;100.00
18985;BME280;9626;52.552;13.436;2023-08-06T08:37:42;99889.44;;;17.29;100.00
18985;BME280;9626;52.552;13.436;2023-08-06T08:40:09;99897.31;;;17.32;100.00
18985;BME280;9626;52.552;13.436;2023-08-06T08:42:36;99886.13;;;17.25;100.00
18985;BME280;9626;52.552;13.436;2023-08-06T08:45:13;99882.84;;;17.20;100.00
18985;BME280;9626;52.552;13.436;2023-08-06T08:47:41;99875.19;;;17.14;100.00
18985;BME280;9626;52.552;13.436;2023-08-06T08:50:08;99873.59;;;17.11;100.00
18985;BME280;9626;52.552;13.436;2023-08-06T08:52:36;99864.78;;;17.09;100.00
18985;BME280;9626;52.552;13.436;2023-08-06T08:55:04;99867.44;;;17.09;100.00
18985;BME280;9626;52.552;13.436;2023-08-06T08:57:30;99869.19;;;17.10;100.00
18985;BME280;9626;52.552;13.436;2023-08-06T08:59:56;99859.53;;;17.08;100.00
18985;BME280;9626;52.552;13.436;2023-08-06T09:02:25;99862.19;;;17.08;100.00
18985;BME280;9626;52.552;13.436;2023-08-06T09:04:52;99867.09;;;17.15;100.00
18985;BME280;9626;52.552;13.436;2023-08-06T09:07:21;99860.22;;;17.26;100.00
18985;BME280;9626;52.552;13.436;2023-08-06T09:09:49;99856.03;;;17.36;100.00
18985;BME280;9626;52.552;13.436;2023-08-06T09:12:22;99850.31;;;17.42;100.00
18985;BME280;9626;52.552;13.436;2023-08-06T09:14:48;99846.47;;;17.46;100.00
18985;BME280;9626;52.552;13.436;2023-08-06T09:17:14;99843.81;;;17.46;100.00
18985;BME280;9626;52.552;13.436;2023-08-06T09:19:43;99842.66;;;17.50;100.00
18985;BME280;9626;52.552;13.436;2023-08-06T09:22:14;99845.34;;;17.50;100.00
18985;BME280;9626;52.552;13.436;2023-08-06T09:24:41;99836.94;;;17.56;100.00
18985;BME280;9626;52.552;13.436;2023-08-06T09:27:14;99838.47;;;17.61;100.00
18985;BME280;9626;52.552;13.436;2023-08-06T09:29:45;99841.72;;;17.66;100.00
18985;BME280;9626;52.552;13.436;2023-08-06T09:32:12;99832.06;;;17.63;100.00
18985;BME280;9626;52.552;13.436;2023-08-06T09:34:39;99825.56;;;17.67;100.00
18985;BME280;9626;52.552;13.436;2023-08-06T09:37:08;99823.53;;;17.71;100.00
18985;BME280;9626;52.552;13.436;2023-08-06T09:39:35;99821.22;;;17.79;100.00
18985;BME280;9626;52.552;13.436;2023-08-06T09:42:02;99818.19;;;17.85;100.00
18985;BME280;9626;52.552;13.436;2023-08-06T09:44:30;99814.34;;;17.89;100.00
18985;BME280;9626;52.552;13.436;2023-08-06T09:47:03;99813.88;;;17.83;100.00
18985;BME280;9626;52.552;13.436;2023-08-06T09:51:59;99802.22;;;17.84;100.00
18985;BME280;9626;52.552;13.436;2023-08-06T09:54:26;99799.22;;;17.88;100.00
18985;BME280;9626;52.552;13.436;2023-08-06T09:56:56;99801.66;;;17.93;100.00
18985;BME280;9626;52.552;13.436;2023-08-06T09:59:24;99798.88;;;17.95;100.00
18985;BME280;9626;52.552;13.436;2023-08-06T10:01:50;99791.78;;;17.94;100.00
18985;BME280;9626;52.552;13.436;2023-08-06T10:04:16;99795.44;;;17.93;100.00
18985;BME280;9626;52.552;13.436;2023-08-06T10:06:46;99782.81;;;17.95;100.00
18985;BME280;9626;52.552;13.436;2023-08-06T10:09:12;99784.72;;;17.93;100.00
18985;BME280;9626;52.552;13.436;2023-08-06T10:11:39;99775.72;;;17.94;100.00
18985;BME280;9626;52.552;13.436;2023-08-06T10:14:20;99778.97;;;17.99;100.00
18985;BME280;9626;52.552;13.436;2023-08-06T10:16:47;99779.72;;;18.01;100.00
18985;BME280;9626;52.552;13.436;2023-08-06T10:19:13;99772.47;;;18.03;100.00
18985;BME280;9626;52.552;13.436;2023-08-06T10:21:41;99773.50;;;18.00;100.00
18985;BME280;9626;52.552;13.436;2023-08-06T10:24:07;99771.56;;;18.02;100.00
18985;BME280;9626;52.552;13.436;2023-08-06T10:26:37;99766.31;;;18.01;100.00
18985;BME280;9626;52.552;13.436;2023-08-06T10:29:35;99770.72;;;18.02;100.00
18985;BME280;9626;52.552;13.436;2023-08-06T10:32:02;99769.22;;;17.98;100.00
18985;BME280;9626;52.552;13.436;2023-08-06T10:34:59;99768.06;;;18.02;100.00
18985;BME280;9626;52.552;13.436;2023-08-06T10:37:36;99764.81;;;17.97;100.00
18985;BME280;9626;52.552;13.436;2023-08-06T10:40:03;99762.81;;;18.00;100.00
18985;BME280;9626;52.552;13.436;2023-08-06T10:42:29;99757.13;;;18.05;100.00
18985;BME280;9626;52.552;13.436;2023-08-06T10:47:42;99756.19;;;18.06;100.00
18985;BME280;9626;52.552;13.436;2023-08-06T10:50:11;99756.94;;;18.08;100.00
18985;BME280;9626;52.552;13.436;2023-08-06T10:52:38;99751.97;;;18.02;100.00
18985;BME280;9626;52.552;13.436;2023-08-06T10:55:04;99748.25;;;18.04;100.00
18985;BME280;9626;52.552;13.436;2023-08-06T10:57:30;99749.88;;;18.07;100.00
18985;BME280;9626;52.552;13.436;2023-08-06T10:59:56;99750.88;;;17.92;100.00
18985;BME280;9626;52.552;13.436;2023-08-06T11:02:22;99739.25;;;17.91;100.00
18985;BME280;9626;52.552;13.436;2023-08-06T11:04:48;99741.19;;;17.89;100.00
18985;BME280;9626;52.552;13.436;2023-08-06T11:07:14;99742.75;;;17.93;100.00
18985;BME280;9626;52.552;13.436;2023-08-06T11:09:40;99738.25;;;17.94;100.00
18985;BME280;9626;52.552;13.436;2023-08-06T11:12:10;99736.13;;;17.99;100.00
18985;BME280;9626;52.552;13.436;2023-08-06T11:14:36;99734.97;;;18.03;100.00
18985;BME280;9626;52.552;13.436;2023-08-06T11:17:02;99734.00;;;18.04;100.00
18985;BME280;9626;52.552;13.436;2023-08-06T11:19:28;99732.94;;;18.06;100.00
18985;BME280;9626;52.552;13.436;2023-08-06T11:21:54;99726.63;;;18.07;100.00
18985;BME280;9626;52.552;13.436;2023-08-06T11:24:24;99724.59;;;18.11;100.00
18985;BME280;9626;52.552;13.436;2023-08-06T11:26:50;99712.94;;;18.12;100.00
18985;BME280;9626;52.552;13.436;2023-08-06T11:29:16;99716.47;;;18.13;100.00
18985;BME280;9626;52.552;13.436;2023-08-06T11:31:42;99712.72;;;18.15;100.00
18985;BME280;9626;52.552;13.436;2023-08-06T11:34:08;99714.22;;;18.19;100.00
18985;BME280;9626;52.552;13.436;2023-08-06T11:36:40;99709.81;;;18.18;100.00
18985;BME280;9626;52.552;13.436;2023-08-06T11:39:06;99709.81;;;18.18;100.00
18985;BME280;9626;52.552;13.436;2023-08-06T11:41:32;99698.38;;;18.16;100.00
18985;BME280;9626;52.552;13.436;2023-08-06T11:43:59;99702.97;;;18.14;100.00
18985;BME280;9626;52.552;13.436;2023-08-06T11:46:25;99701.16;;;18.15;100.00
18985;BME280;9626;52.552;13.436;2023-08-06T11:51:18;99698.47;;;18.15;100.00
18985;BME280;9626;52.552;13.436;2023-08-06T11:53:49;99686.88;;;18.14;100.00
18985;BME280;9626;52.552;13.436;2023-08-06T11:56:16;99683.03;;;18.18;100.00
18985;BME280;9626;52.552;13.436;2023-08-06T11:58:42;99683.81;;;18.20;100.00
18985;BME280;9626;52.552;13.436;2023-08-06T12:01:08;99682.75;;;18.23;100.00
18985;BME280;9626;52.552;13.436;2023-08-06T12:03:40;99680.69;;;18.27;100.00
18985;BME280;9626;52.552;13.436;2023-08-06T12:06:07;99679.63;;;18.29;100.00
18985;BME280;9626;52.552;13.436;2023-08-06T12:08:33;99680.41;;;18.31;100.00
18985;BME280;9626;52.552;13.436;2023-08-06T12:10:59;99678.56;;;18.32;100.00
18985;BME280;9626;52.552;13.436;2023-08-06T12:13:25;99678.47;;;18.33;100.00
18985;BME280;9626;52.552;13.436;2023-08-06T12:15:51;99672.25;;;18.33;100.00
18985;BME280;9626;52.552;13.436;2023-08-06T12:18:19;99665.94;;;18.34;100.00
18985;BME280;9626;52.552;13.436;2023-08-06T12:20:45;99670.22;;;18.36;100.00
18985;BME280;9626;52.552;13.436;2023-08-06T12:23:11;99673.53;;;18.40;100.00
18985;BME280;9626;52.552;13.436;2023-08-06T12:25:42;99668.19;;;18.40;100.00
18985;BME280;9626;52.552;13.436;2023-08-06T12:28:08;99669.13;;;18.39;100.00
18985;BME280;9626;52.552;13.436;2023-08-06T12:30:36;99664.44;;;18.42;100.00
18985;BME280;9626;52.552;13.436;2023-08-06T12:33:02;99667.63;;;18.35;100.00
18985;BME280;9626;52.552;13.436;2023-08-06T12:35:28;99668.63;;;18.34;100.00
18985;BME280;9626;52.552;13.436;2023-08-06T12:37:54;99665.28;;;18.30;100.00
18985;BME280;9626;52.552;13.436;2023-08-06T12:40:20;99669.38;;;18.36;100.00
18985;BME280;9626;52.552;13.436;2023-08-06T12:42:46;99664.09;;;18.34;100.00
18985;BME280;9626;52.552;13.436;2023-08-06T12:45:12;99663.34;;;18.32;100.00
18985;BME280;9626;52.552;13.436;2023-08-06T12:47:40;99659.06;;;18.30;100.00
18985;BME280;9626;52.552;13.436;2023-08-06T12:50:06;99670.75;;;18.29;100.00
18985;BME280;9626;52.552;13.436;2023-08-06T12:52:32;99664.84;;;18.23;100.00
18985;BME280;9626;52.552;13.436;2023-08-06T12:54:58;99673.66;;;18.26;100.00